createdAt,value
2022-10-08T00:09:00.712Z,13.19
2022-10-08T00:19:22.189Z,13.14
2022-10-08T00:29:44.745Z,13.07
2022-10-08T00:40:06.639Z,13.34
2022-10-08T00:50:35.316Z,13.11
2022-10-08T01:00:58.029Z,13.23
2022-10-08T01:11:56.825Z,13.21
2022-10-08T01:22:52.393Z,13.17
2022-10-08T01:33:23.023Z,13.32
2022-10-08T01:43:54.525Z,13.42
2022-10-08T01:54:17.649Z,13.45
2022-10-08T02:04:39.148Z,13.60
2022-10-08T02:15:03.737Z,13.73
2022-10-08T02:25:58.845Z,13.60
2022-10-08T02:36:26.044Z,13.56
2022-10-08T02:46:51.350Z,13.51
2022-10-08T02:57:18.509Z,13.53
2022-10-08T03:07:40.006Z,13.45
2022-10-08T03:18:06.222Z,13.33
2022-10-08T03:28:27.776Z,13.36
2022-10-08T03:38:49.914Z,13.26
2022-10-08T03:49:11.378Z,13.22
2022-10-08T03:59:32.903Z,13.31
2022-10-08T04:09:54.360Z,13.10
2022-10-08T04:20:15.851Z,13.04
2022-10-08T04:30:37.300Z,12.84
2022-10-08T04:41:06.697Z,12.75
2022-10-08T04:51:28.500Z,12.56
2022-10-08T05:01:50.177Z,12.44
2022-10-08T05:12:11.739Z,12.26
2022-10-08T05:22:33.539Z,12.28
2022-10-08T05:32:55.090Z,12.15
2022-10-08T05:43:16.587Z,11.93
2022-10-08T05:53:39.783Z,11.86
2022-10-08T06:04:09.024Z,11.92
2022-10-08T06:14:30.693Z,11.90
2022-10-08T06:24:52.140Z,11.84
2022-10-08T06:35:13.647Z,11.98
2022-10-08T06:45:39.439Z,11.95
2022-10-08T06:56:03.283Z,12.11
2022-10-08T07:06:25.656Z,12.28
2022-10-08T07:16:47.610Z,12.48
2022-10-08T07:27:09.118Z,12.73
2022-10-08T07:37:30.583Z,13.02
2022-10-08T07:47:52.023Z,13.23
2022-10-08T07:58:13.551Z,13.48
2022-10-08T08:08:37.255Z,13.75
2022-10-08T08:19:00.441Z,14.05
2022-10-08T08:29:21.953Z,14.17
2022-10-08T08:39:43.403Z,14.07
2022-10-08T08:50:25.991Z,14.36
2022-10-08T09:00:56.295Z,14.64
2022-10-08T09:11:20.866Z,14.54
2022-10-08T09:21:42.424Z,14.45
2022-10-08T09:32:04.019Z,14.44
2022-10-08T09:42:25.514Z,14.21
2022-10-08T09:52:50.575Z,14.08
2022-10-08T10:03:19.744Z,14.00
2022-10-08T10:13:42.319Z,13.45
2022-10-08T10:24:06.834Z,13.25
2022-10-08T10:34:30.535Z,13.51
2022-10-08T10:44:52.356Z,13.99
2022-10-08T10:55:13.690Z,14.14
2022-10-08T11:05:37.221Z,14.38
2022-10-08T11:16:31.173Z,14.85
2022-10-08T11:27:19.462Z,15.09
2022-10-08T11:37:45.194Z,15.46
2022-10-08T11:48:25.535Z,15.87
2022-10-08T11:58:54.118Z,15.51
2022-10-08T12:09:25.338Z,15.20
2022-10-08T12:20:18.905Z,15.18
2022-10-08T12:30:55.600Z,15.42
2022-10-08T12:42:00.605Z,15.89
2022-10-08T12:52:23.240Z,15.43
2022-10-08T13:02:57.552Z,15.08
2022-10-08T13:13:40.745Z,15.22
2022-10-08T13:24:11.375Z,15.49
2022-10-08T13:34:39.201Z,15.89
2022-10-08T13:45:03.321Z,15.46
2022-10-08T13:55:33.960Z,15.60
2022-10-08T14:05:55.428Z,15.62
2022-10-08T14:16:16.934Z,15.77
2022-10-08T14:26:38.360Z,15.73
2022-10-08T14:37:00.106Z,15.35
2022-10-08T14:47:21.647Z,15.33
2022-10-08T14:57:43.766Z,14.91
2022-10-08T15:08:05.205Z,14.29
2022-10-08T15:18:30.155Z,14.41
2022-10-08T15:28:53.526Z,14.38
2022-10-08T15:39:17.333Z,14.29
2022-10-08T15:49:41.705Z,14.16
2022-10-08T16:00:03.523Z,14.24
2022-10-08T16:10:25.283Z,14.00
2022-10-08T16:20:50.590Z,13.88
2022-10-08T16:31:14.105Z,13.75
2022-10-08T16:41:37.248Z,13.56
2022-10-08T16:52:04.390Z,13.35
2022-10-08T17:02:27.208Z,13.29
2022-10-08T17:12:49.191Z,13.26
2022-10-08T17:23:11.474Z,13.13
2022-10-08T17:33:35.770Z,13.04
2022-10-08T17:44:01.476Z,12.94
2022-10-08T17:54:23.088Z,12.86
2022-10-08T18:04:44.583Z,12.84
2022-10-08T18:15:06.369Z,12.78
2022-10-08T18:25:27.933Z,12.66
2022-10-08T18:35:49.382Z,12.60
2022-10-08T18:46:11.941Z,12.60
2022-10-08T18:56:35.458Z,12.33
2022-10-08T19:06:56.997Z,12.29
2022-10-08T19:17:18.496Z,12.10
2022-10-08T19:27:39.975Z,12.32
2022-10-08T19:38:01.430Z,11.86
2022-10-08T19:48:22.917Z,11.87
2022-10-08T19:58:48.665Z,11.53
2022-10-08T20:09:12.417Z,11.66
2022-10-08T20:19:33.985Z,11.52
2022-10-08T20:29:55.586Z,11.19
2022-10-08T20:40:17.033Z,11.12
2022-10-08T20:50:38.518Z,10.82
2022-10-08T21:01:10.729Z,10.92
2022-10-08T21:11:35.276Z,10.70
2022-10-08T21:21:56.784Z,10.82
2022-10-08T21:32:18.290Z,10.66
2022-10-08T21:42:39.857Z,10.74
2022-10-08T21:53:01.327Z,10.45
2022-10-08T22:03:23.216Z,10.51
2022-10-08T22:13:44.731Z,10.24
2022-10-08T22:24:06.372Z,10.25
2022-10-08T22:34:27.871Z,10.11
2022-10-08T22:44:49.356Z,9.93
2022-10-08T22:55:11.574Z,9.93
2022-10-08T23:05:33.179Z,9.70
2022-10-08T23:16:09.914Z,9.66
2022-10-08T23:26:31.423Z,9.71
2022-10-08T23:36:52.885Z,9.46
2022-10-08T23:47:14.335Z,9.39
2022-10-08T23:57:35.796Z,9.34
